createdAt,value
2018-05-23T00:00:01.896Z,5.80
2018-05-23T00:02:28.592Z,5.60
2018-05-23T00:04:54.557Z,5.83
2018-05-23T00:07:22.010Z,4.70
2018-05-23T00:09:54.955Z,5.73
2018-05-23T00:12:21.683Z,5.40
2018-05-23T00:14:47.635Z,5.67
2018-05-23T00:17:14.348Z,5.10
2018-05-23T00:19:40.310Z,5.00
2018-05-23T00:22:06.316Z,5.67
2018-05-23T00:24:32.271Z,5.33
2018-05-23T00:26:58.223Z,5.53
2018-05-23T00:29:24.948Z,5.47
2018-05-23T00:31:50.908Z,4.60
2018-05-23T00:34:16.892Z,4.53
2018-05-23T00:36:42.873Z,4.60
2018-05-23T00:39:08.855Z,4.50
2018-05-23T00:41:35.318Z,4.70
2018-05-23T00:44:01.274Z,4.77
2018-05-23T00:46:27.262Z,4.90
2018-05-23T00:48:53.218Z,4.80
2018-05-23T00:51:19.173Z,4.37
2018-05-23T00:53:45.127Z,4.87
2018-05-23T00:56:11.090Z,4.77
2018-05-23T00:58:37.265Z,4.60
2018-05-23T01:01:03.226Z,4.10
2018-05-23T01:03:29.201Z,4.40
2018-05-23T01:05:55.187Z,5.37
2018-05-23T01:08:21.182Z,5.10
2018-05-23T01:13:36.570Z,4.97
2018-05-23T01:16:02.577Z,4.50
2018-05-23T01:18:28.578Z,4.80
2018-05-23T01:20:54.547Z,4.87
2018-05-23T01:23:20.517Z,4.50
2018-05-23T01:25:46.480Z,5.07
2018-05-23T01:28:12.446Z,5.53
2018-05-23T01:30:38.425Z,4.80
2018-05-23T01:33:05.136Z,5.03
2018-05-23T01:35:31.099Z,5.13
2018-05-23T01:37:57.058Z,5.00
2018-05-23T01:40:23.754Z,5.27
2018-05-23T01:42:49.705Z,4.73
2018-05-23T01:45:15.667Z,5.13
2018-05-23T01:47:41.662Z,4.47
2018-05-23T01:50:07.629Z,4.57
2018-05-23T01:52:33.596Z,5.10
2018-05-23T01:54:59.562Z,4.37
2018-05-23T01:57:25.524Z,3.90
2018-05-23T01:59:51.480Z,4.20
2018-05-23T02:02:18.174Z,5.37
2018-05-23T02:04:44.145Z,4.70
2018-05-23T02:07:10.122Z,4.77
2018-05-23T02:09:36.095Z,4.60
2018-05-23T02:12:02.046Z,4.30
2018-05-23T02:14:28.022Z,5.27
2018-05-23T02:16:54.714Z,5.47
2018-05-23T02:19:20.675Z,5.00
2018-05-23T02:21:46.631Z,4.70
2018-05-23T02:24:13.323Z,4.93
2018-05-23T02:26:39.322Z,4.63
2018-05-23T02:29:06.029Z,5.03
2018-05-23T02:31:31.983Z,4.97
2018-05-23T02:33:57.933Z,4.67
2018-05-23T02:36:23.895Z,4.73
2018-05-23T02:38:50.590Z,4.03
2018-05-23T02:41:16.545Z,4.63
2018-05-23T02:43:42.510Z,5.33
2018-05-23T02:46:15.242Z,4.80
2018-05-23T02:48:41.194Z,4.80
2018-05-23T02:51:07.190Z,4.37
2018-05-23T02:53:33.151Z,4.13
2018-05-23T02:55:59.122Z,4.60
2018-05-23T02:58:25.118Z,5.13
2018-05-23T03:00:51.075Z,4.70
2018-05-23T03:03:17.051Z,5.43
2018-05-23T03:05:43.757Z,4.47
2018-05-23T03:08:09.939Z,4.67
2018-05-23T03:10:36.673Z,3.93
2018-05-23T03:13:02.642Z,4.53
2018-05-23T03:15:28.593Z,4.80
2018-05-23T03:17:54.558Z,4.37
2018-05-23T03:20:20.526Z,4.50
2018-05-23T03:22:47.226Z,3.83
2018-05-23T03:25:13.176Z,4.50
2018-05-23T03:27:39.175Z,4.50
2018-05-23T03:30:05.169Z,4.60
2018-05-23T03:32:31.118Z,4.70
2018-05-23T03:34:57.809Z,4.77
2018-05-23T03:37:23.798Z,4.03
2018-05-23T03:39:49.746Z,4.93
2018-05-23T03:42:16.466Z,4.70
2018-05-23T03:44:42.440Z,5.03
2018-05-23T03:47:09.181Z,5.10
2018-05-23T03:49:35.198Z,4.80
2018-05-23T03:52:01.162Z,5.00
2018-05-23T03:54:27.869Z,5.20
2018-05-23T03:56:53.907Z,4.90
2018-05-23T03:59:32.922Z,5.10
2018-05-23T04:02:11.114Z,4.30
2018-05-23T04:07:40.663Z,4.20
2018-05-23T04:10:06.683Z,4.93
2018-05-23T04:12:32.675Z,4.63
2018-05-23T04:14:58.630Z,4.70
2018-05-23T04:17:24.686Z,3.70
2018-05-23T04:19:50.670Z,4.80
2018-05-23T04:22:16.635Z,4.27
2018-05-23T04:24:42.597Z,4.10
2018-05-23T04:27:08.586Z,4.53
2018-05-23T04:29:34.561Z,5.20
2018-05-23T04:32:00.574Z,5.23
2018-05-23T04:34:26.521Z,4.43
2018-05-23T04:36:52.471Z,4.80
2018-05-23T04:39:18.433Z,4.80
2018-05-23T04:41:44.384Z,5.03
2018-05-23T04:44:10.350Z,4.97
2018-05-23T04:46:36.325Z,4.23
2018-05-23T04:49:03.057Z,4.70
2018-05-23T04:51:29.037Z,5.30
2018-05-23T04:53:55.011Z,5.27
2018-05-23T04:56:20.959Z,5.30
2018-05-23T04:58:46.906Z,5.53
2018-05-23T05:01:12.931Z,6.20
2018-05-23T05:03:38.925Z,5.10
2018-05-23T05:06:04.886Z,5.20
2018-05-23T05:08:30.857Z,5.77
2018-05-23T05:10:57.562Z,5.07
2018-05-23T05:13:23.513Z,5.20
2018-05-23T05:15:49.487Z,6.30
2018-05-23T05:18:16.286Z,5.93
2018-05-23T05:20:42.250Z,5.37
2018-05-23T05:23:08.211Z,5.27
2018-05-23T05:25:34.923Z,6.50
2018-05-23T05:28:00.911Z,6.60
2018-05-23T05:30:26.882Z,8.00
2018-05-23T05:32:52.869Z,7.97
2018-05-23T05:35:19.578Z,8.53
2018-05-23T05:37:45.561Z,8.20
2018-05-23T05:40:12.250Z,8.27
2018-05-23T05:42:38.302Z,8.00
2018-05-23T05:45:04.376Z,7.53
2018-05-23T05:47:31.114Z,7.93
2018-05-23T05:49:57.110Z,8.07
2018-05-23T05:52:23.086Z,8.33
2018-05-23T05:54:49.039Z,9.10
2018-05-23T05:57:15.738Z,9.13
2018-05-23T05:59:41.740Z,9.07
2018-05-23T06:02:08.507Z,8.93
2018-05-23T06:04:35.165Z,8.53
2018-05-23T06:07:01.180Z,9.40
2018-05-23T06:09:27.137Z,9.63
2018-05-23T06:11:53.085Z,7.87
2018-05-23T06:14:19.075Z,8.33
2018-05-23T06:16:45.783Z,9.67
2018-05-23T06:19:11.872Z,8.73
2018-05-23T06:21:38.570Z,9.30
2018-05-23T06:24:04.564Z,9.40
2018-05-23T06:26:30.527Z,8.77
2018-05-23T06:28:56.490Z,9.80
2018-05-23T06:31:22.444Z,8.17
2018-05-23T06:33:49.157Z,7.67
2018-05-23T06:36:15.105Z,7.90
2018-05-23T06:38:41.063Z,8.73
2018-05-23T06:41:07.039Z,8.60
2018-05-23T06:43:33.808Z,8.83
2018-05-23T06:46:00.553Z,9.30
2018-05-23T06:48:26.509Z,8.70
2018-05-23T06:50:52.495Z,7.17
2018-05-23T06:53:19.275Z,7.43
2018-05-23T06:55:45.256Z,6.70
2018-05-23T06:58:11.329Z,6.33
2018-05-23T07:00:38.050Z,5.57
2018-05-23T07:03:04.040Z,5.67
2018-05-23T07:05:29.990Z,5.77
2018-05-23T07:07:55.946Z,5.17
2018-05-23T07:10:21.889Z,5.77
2018-05-23T07:12:47.858Z,5.57
2018-05-23T07:15:13.843Z,5.97
2018-05-23T07:17:39.818Z,5.63
2018-05-23T07:20:06.542Z,6.13
2018-05-23T07:22:32.533Z,6.13
2018-05-23T07:24:58.498Z,6.63
2018-05-23T07:27:24.449Z,6.73
2018-05-23T07:29:50.412Z,6.77
2018-05-23T07:32:17.110Z,5.83
2018-05-23T07:34:43.064Z,6.57
2018-05-23T07:37:09.017Z,5.20
2018-05-23T07:39:35.006Z,5.60
2018-05-23T07:42:00.993Z,6.87
2018-05-23T07:44:26.946Z,6.43
2018-05-23T07:46:53.638Z,7.03
2018-05-23T07:49:19.594Z,6.97
2018-05-23T07:51:45.561Z,7.20
2018-05-23T07:54:12.257Z,6.80
2018-05-23T07:56:38.332Z,7.33
2018-05-23T07:59:04.255Z,6.47
2018-05-23T08:01:30.271Z,7.20
2018-05-23T08:03:56.317Z,7.13
2018-05-23T08:06:22.278Z,8.07
2018-05-23T08:08:48.246Z,7.73
2018-05-23T08:11:14.205Z,7.53
2018-05-23T08:13:40.159Z,8.53
2018-05-23T08:16:06.283Z,8.37
2018-05-23T08:18:32.281Z,8.40
2018-05-23T08:20:58.981Z,8.27
2018-05-23T08:23:24.925Z,8.67
2018-05-23T08:25:55.137Z,9.17
2018-05-23T08:28:21.107Z,8.80
2018-05-23T08:30:47.075Z,10.43
2018-05-23T08:33:13.758Z,9.47
2018-05-23T08:35:39.707Z,9.50
2018-05-23T08:38:05.681Z,10.63
2018-05-23T08:40:32.400Z,10.57
2018-05-23T08:42:58.354Z,8.90
2018-05-23T08:45:24.306Z,10.00
2018-05-23T08:47:50.247Z,9.77
2018-05-23T08:50:16.952Z,9.20
2018-05-23T08:52:42.913Z,8.80
2018-05-23T08:55:08.887Z,8.07
2018-05-23T08:57:34.870Z,7.43
2018-05-23T09:00:00.842Z,8.23
2018-05-23T09:02:27.538Z,7.30
2018-05-23T09:04:53.587Z,7.53
2018-05-23T09:07:19.469Z,7.00
2018-05-23T09:09:46.323Z,7.63
2018-05-23T09:12:13.100Z,7.87
2018-05-23T09:14:38.986Z,7.47
2018-05-23T09:17:05.054Z,8.07
2018-05-23T09:19:31.827Z,7.53
2018-05-23T09:21:57.785Z,7.60
2018-05-23T09:24:23.784Z,6.87
2018-05-23T09:26:49.759Z,7.60
2018-05-23T09:29:15.859Z,8.90
2018-05-23T09:31:41.810Z,8.23
2018-05-23T09:34:07.787Z,11.67
2018-05-23T09:36:33.762Z,9.20
2018-05-23T09:38:59.727Z,8.50
2018-05-23T09:41:25.686Z,8.13
2018-05-23T09:43:51.645Z,7.27
2018-05-23T09:46:18.356Z,7.18
2018-05-23T09:48:44.313Z,7.60
2018-05-23T09:51:10.270Z,6.43
2018-05-23T09:53:36.239Z,6.00
2018-05-23T09:56:02.202Z,4.87
2018-05-23T09:58:28.153Z,4.55
2018-05-23T10:00:55.599Z,4.15
2018-05-23T10:03:21.558Z,5.55
2018-05-23T10:05:47.530Z,4.77
2018-05-23T10:08:14.226Z,5.03
2018-05-23T10:10:40.193Z,4.47
2018-05-23T10:13:06.198Z,5.23
2018-05-23T10:15:32.265Z,4.53
2018-05-23T10:17:58.226Z,4.37
2018-05-23T10:20:24.928Z,4.33
2018-05-23T10:22:50.888Z,4.87
2018-05-23T10:25:16.875Z,4.63
2018-05-23T10:27:42.850Z,4.20
2018-05-23T10:30:08.921Z,4.50
2018-05-23T10:32:35.676Z,4.37
2018-05-23T10:35:02.433Z,4.93
2018-05-23T10:37:28.387Z,4.37
2018-05-23T10:39:54.364Z,4.40
2018-05-23T10:42:20.322Z,4.20
2018-05-23T10:44:47.013Z,4.30
2018-05-23T10:47:12.973Z,4.73
2018-05-23T10:49:38.937Z,4.27
2018-05-23T10:52:05.003Z,4.37
2018-05-23T10:54:30.928Z,4.20
2018-05-23T10:56:57.619Z,4.30
2018-05-23T10:59:23.595Z,4.07
2018-05-23T11:01:49.548Z,4.47
2018-05-23T11:04:16.238Z,4.73
2018-05-23T11:06:42.201Z,4.47
2018-05-23T11:09:08.187Z,4.40
2018-05-23T11:11:34.240Z,4.50
2018-05-23T11:14:00.219Z,4.13
2018-05-23T11:16:26.197Z,4.43
2018-05-23T11:18:52.170Z,4.23
2018-05-23T11:21:18.143Z,4.23
2018-05-23T11:23:44.847Z,3.87
2018-05-23T11:26:10.831Z,4.20
2018-05-23T11:28:37.562Z,4.30
2018-05-23T11:31:03.646Z,4.57
2018-05-23T11:33:29.625Z,4.07
2018-05-23T11:35:55.574Z,4.40
2018-05-23T11:38:21.729Z,4.67
2018-05-23T11:40:48.422Z,4.73
2018-05-23T11:43:14.396Z,4.70
2018-05-23T11:45:40.344Z,4.30
2018-05-23T11:48:06.302Z,4.83
2018-05-23T11:50:32.296Z,4.80
2018-05-23T11:52:58.260Z,5.37
2018-05-23T11:55:24.952Z,4.40
2018-05-23T11:57:50.901Z,4.70
2018-05-23T12:00:16.880Z,4.57
2018-05-23T12:02:43.598Z,5.20
2018-05-23T12:05:09.584Z,4.00
2018-05-23T12:07:36.315Z,4.87
2018-05-23T12:10:03.081Z,5.50
2018-05-23T12:12:29.774Z,5.27
2018-05-23T12:14:55.734Z,4.90
2018-05-23T12:17:21.701Z,5.50
2018-05-23T12:19:48.398Z,5.30
2018-05-23T12:22:14.361Z,5.33
2018-05-23T12:24:40.310Z,4.93
2018-05-23T12:27:06.278Z,5.53
2018-05-23T12:29:32.298Z,5.23
2018-05-23T12:31:59.009Z,5.47
2018-05-23T12:34:25.078Z,5.20
2018-05-23T12:36:51.776Z,5.60
2018-05-23T12:39:17.735Z,4.83
2018-05-23T12:41:43.686Z,5.13
2018-05-23T12:44:09.675Z,5.00
2018-05-23T12:46:35.655Z,5.67
2018-05-23T12:49:01.627Z,5.53
2018-05-23T12:51:27.590Z,5.23
2018-05-23T12:53:53.557Z,5.60
2018-05-23T12:56:19.509Z,5.20
2018-05-23T12:58:46.214Z,5.23
2018-05-23T13:01:12.194Z,5.10
2018-05-23T13:03:38.162Z,5.95
2018-05-23T13:06:04.186Z,5.25
2018-05-23T13:08:30.167Z,5.30
2018-05-23T13:10:56.129Z,5.07
2018-05-23T13:13:22.903Z,5.87
2018-05-23T13:15:49.601Z,5.10
2018-05-23T13:18:15.578Z,4.70
2018-05-23T13:20:42.274Z,4.70
2018-05-23T13:23:08.307Z,5.62
2018-05-23T13:25:34.294Z,4.53
2018-05-23T13:28:01.002Z,4.55
2018-05-23T13:30:26.982Z,4.68
2018-05-23T13:32:52.934Z,4.68
2018-05-23T13:35:19.658Z,4.85
2018-05-23T13:37:45.609Z,5.07
2018-05-23T13:40:11.567Z,5.10
2018-05-23T13:42:38.315Z,5.00
2018-05-23T13:45:04.334Z,4.40
2018-05-23T13:47:30.290Z,4.93
2018-05-23T13:49:56.275Z,5.00
2018-05-23T13:52:22.255Z,5.05
2018-05-23T13:54:48.977Z,4.45
2018-05-23T13:57:14.958Z,4.65
2018-05-23T13:59:40.918Z,4.82
2018-05-23T14:02:06.895Z,4.32
2018-05-23T14:04:32.867Z,4.35
2018-05-23T14:06:58.825Z,4.22
2018-05-23T14:09:24.804Z,4.57
2018-05-23T14:11:50.770Z,4.80
2018-05-23T14:14:16.801Z,4.45
2018-05-23T14:16:42.762Z,4.15
2018-05-23T14:19:08.750Z,4.20
2018-05-23T14:21:34.728Z,3.78
2018-05-23T14:24:00.713Z,4.07
2018-05-23T14:26:26.670Z,4.32
2018-05-23T14:28:52.630Z,4.30
2018-05-23T14:31:18.602Z,4.45
2018-05-23T14:33:44.597Z,4.80
2018-05-23T14:36:10.547Z,4.53
2018-05-23T14:38:36.542Z,4.45
2018-05-23T14:41:03.363Z,4.60
2018-05-23T14:43:30.160Z,4.87
2018-05-23T14:45:56.060Z,4.75
2018-05-23T14:48:22.011Z,4.22
2018-05-23T14:50:47.970Z,4.43
2018-05-23T14:53:13.932Z,4.75
2018-05-23T14:55:39.894Z,4.22
2018-05-23T14:58:05.888Z,4.82
2018-05-23T15:00:31.915Z,4.68
2018-05-23T15:02:57.883Z,4.85
2018-05-23T15:05:23.834Z,4.85
2018-05-23T15:07:49.850Z,4.68
2018-05-23T15:10:15.822Z,4.15
2018-05-23T15:12:41.793Z,4.85
2018-05-23T15:15:07.781Z,4.97
2018-05-23T15:17:33.758Z,4.97
2018-05-23T15:20:00.631Z,4.20
2018-05-23T15:22:26.425Z,4.97
2018-05-23T15:24:53.873Z,4.60
2018-05-23T15:27:19.865Z,3.90
2018-05-23T15:29:45.815Z,4.43
2018-05-23T15:32:11.784Z,4.40
2018-05-23T15:34:37.752Z,4.13
2018-05-23T15:37:04.482Z,3.97
2018-05-23T15:39:30.472Z,4.37
2018-05-23T15:41:56.435Z,3.93
2018-05-23T15:44:22.391Z,4.10
2018-05-23T15:46:48.364Z,4.40
2018-05-23T15:49:14.360Z,4.27
2018-05-23T15:51:40.338Z,4.20
2018-05-23T15:54:06.315Z,3.97
2018-05-23T15:56:32.322Z,3.90
2018-05-23T15:58:58.299Z,3.80
2018-05-23T16:01:24.263Z,3.87
2018-05-23T16:03:50.966Z,3.50
2018-05-23T16:06:16.958Z,3.40
2018-05-23T16:08:42.909Z,4.03
2018-05-23T16:11:09.130Z,4.33
2018-05-23T16:13:35.871Z,3.60
2018-05-23T16:16:02.610Z,3.47
2018-05-23T16:18:29.323Z,3.70
2018-05-23T16:20:55.287Z,4.07
2018-05-23T16:23:21.245Z,3.77
2018-05-23T16:25:47.959Z,3.77
2018-05-23T16:28:13.922Z,3.80
2018-05-23T16:30:39.882Z,3.90
2018-05-23T16:33:06.588Z,3.50
2018-05-23T16:35:32.589Z,3.40
2018-05-23T16:37:58.544Z,3.40
2018-05-23T16:40:24.508Z,3.27
2018-05-23T16:42:50.468Z,4.00
2018-05-23T16:45:17.183Z,3.70
2018-05-23T16:47:43.148Z,3.60
2018-05-23T16:50:09.862Z,4.17
2018-05-23T16:52:35.852Z,8.60
2018-05-23T16:55:01.838Z,4.10
2018-05-23T16:57:27.803Z,3.37
2018-05-23T16:59:54.534Z,3.97
2018-05-23T17:02:22.116Z,3.80
2018-05-23T17:04:48.076Z,4.37
2018-05-23T17:07:14.777Z,4.40
2018-05-23T17:09:40.742Z,3.90
2018-05-23T17:12:06.727Z,3.23
2018-05-23T17:14:32.721Z,3.60
2018-05-23T17:16:59.442Z,3.90
2018-05-23T17:19:25.405Z,3.87
2018-05-23T17:21:52.121Z,4.40
2018-05-23T17:24:18.091Z,3.60
2018-05-23T17:26:44.050Z,4.10
2018-05-23T17:29:10.804Z,3.97
2018-05-23T17:31:36.816Z,3.87
2018-05-23T17:34:02.799Z,4.23
2018-05-23T17:36:28.750Z,4.47
2018-05-23T17:38:54.710Z,4.03
2018-05-23T17:41:20.678Z,4.83
2018-05-23T17:43:47.391Z,4.23
2018-05-23T17:46:13.395Z,4.87
2018-05-23T17:48:39.393Z,5.00
2018-05-23T17:51:06.128Z,4.80
2018-05-23T17:53:32.116Z,5.37
2018-05-23T17:55:58.103Z,5.03
2018-05-23T17:58:24.064Z,5.07
2018-05-23T18:00:50.291Z,5.17
2018-05-23T18:03:17.066Z,4.77
2018-05-23T18:05:43.021Z,4.77
2018-05-23T18:08:08.998Z,5.10
2018-05-23T18:10:34.991Z,4.50
2018-05-23T18:13:01.002Z,5.43
2018-05-23T18:15:26.978Z,4.93
2018-05-23T18:17:53.001Z,5.23
2018-05-23T18:20:18.907Z,5.13
2018-05-23T18:22:44.895Z,4.87
2018-05-23T18:25:10.906Z,5.00
2018-05-23T18:27:36.928Z,5.07
2018-05-23T18:30:02.960Z,4.87
2018-05-23T18:32:28.975Z,5.10
2018-05-23T18:34:55.668Z,5.13
2018-05-23T18:37:21.613Z,5.53
2018-05-23T18:39:47.569Z,5.20
2018-05-23T18:42:13.518Z,5.07
2018-05-23T18:44:40.976Z,5.13
2018-05-23T18:47:06.999Z,5.17
2018-05-23T18:49:32.994Z,5.40
2018-05-23T18:51:58.955Z,4.73
2018-05-23T18:54:25.008Z,5.73
2018-05-23T18:56:51.648Z,5.20
2018-05-23T18:59:17.633Z,5.33
2018-05-23T19:01:44.332Z,5.43
2018-05-23T19:04:10.331Z,5.30
2018-05-23T19:06:36.311Z,4.73
2018-05-23T19:09:02.323Z,4.93
2018-05-23T19:11:28.281Z,4.80
2018-05-23T19:13:54.334Z,5.33
2018-05-23T19:16:20.199Z,4.90
2018-05-23T19:18:46.945Z,4.70
2018-05-23T19:21:13.648Z,5.10
2018-05-23T19:23:39.692Z,4.70
2018-05-23T19:26:05.707Z,4.70
2018-05-23T19:28:32.073Z,4.97
2018-05-23T19:30:58.057Z,4.83
2018-05-23T19:33:24.759Z,4.70
2018-05-23T19:35:50.729Z,5.03
2018-05-23T19:38:16.691Z,4.63
2018-05-23T19:40:42.689Z,5.07
2018-05-23T19:43:08.692Z,5.30
2018-05-23T19:45:34.767Z,4.60
2018-05-23T19:48:00.745Z,4.60
2018-05-23T19:50:26.729Z,4.77
2018-05-23T19:52:52.701Z,4.43
2018-05-23T19:55:19.421Z,4.27
2018-05-23T19:57:46.398Z,4.37
2018-05-23T20:00:13.098Z,4.27
2018-05-23T20:02:39.095Z,3.90
2018-05-23T20:05:05.913Z,3.90
2018-05-23T20:07:33.151Z,4.03
2018-05-23T20:09:59.141Z,3.67
2018-05-23T20:12:25.858Z,4.43
2018-05-23T20:14:51.827Z,4.07
2018-05-23T20:17:18.546Z,4.20
2018-05-23T20:19:44.519Z,4.10
2018-05-23T20:22:11.227Z,3.70
2018-05-23T20:24:37.217Z,4.07
2018-05-23T20:27:03.174Z,4.13
2018-05-23T20:29:29.147Z,4.20
2018-05-23T20:31:55.112Z,3.37
2018-05-23T20:34:21.071Z,4.43
2018-05-23T20:36:48.511Z,4.60
2018-05-23T20:39:14.462Z,4.40
2018-05-23T20:41:40.421Z,4.40
2018-05-23T20:44:07.119Z,4.37
2018-05-23T20:46:33.061Z,4.00
2018-05-23T20:48:59.022Z,4.30
2018-05-23T20:51:24.985Z,4.47
2018-05-23T20:53:51.682Z,4.83
2018-05-23T20:56:17.632Z,4.83
2018-05-23T20:58:43.638Z,4.87
2018-05-23T21:01:09.548Z,4.43
2018-05-23T21:03:36.250Z,5.33
2018-05-23T21:06:02.213Z,4.80
2018-05-23T21:08:28.926Z,4.87
2018-05-23T21:10:54.898Z,5.00
2018-05-23T21:13:21.606Z,4.77
2018-05-23T21:15:47.568Z,4.50
2018-05-23T21:18:13.539Z,5.03
2018-05-23T21:20:39.482Z,4.63
2018-05-23T21:23:06.182Z,4.67
2018-05-23T21:25:32.140Z,4.33
2018-05-23T21:27:58.101Z,5.00
2018-05-23T21:30:24.798Z,5.53
2018-05-23T21:32:50.749Z,5.27
2018-05-23T21:35:16.710Z,5.67
2018-05-23T21:37:42.660Z,5.10
2018-05-23T21:40:09.370Z,5.40
2018-05-23T21:42:35.314Z,6.17
2018-05-23T21:45:01.287Z,5.63
2018-05-23T21:47:28.014Z,5.30
2018-05-23T21:49:54.714Z,5.87
2018-05-23T21:52:20.682Z,6.00
2018-05-23T21:54:46.659Z,6.00
2018-05-23T21:57:13.354Z,5.80
2018-05-23T21:59:39.319Z,6.17
2018-05-23T22:02:05.265Z,6.10
2018-05-23T22:04:31.231Z,5.87
2018-05-23T22:06:57.192Z,6.27
2018-05-23T22:09:23.138Z,6.03
2018-05-23T22:11:49.111Z,6.03
2018-05-23T22:14:15.798Z,6.57
2018-05-23T22:16:41.745Z,6.00
2018-05-23T22:19:07.702Z,6.40
2018-05-23T22:21:33.659Z,6.47
2018-05-23T22:23:59.626Z,6.53
2018-05-23T22:26:26.322Z,6.43
2018-05-23T22:28:52.275Z,6.47
2018-05-23T22:31:18.234Z,6.13
2018-05-23T22:33:44.930Z,6.47
2018-05-23T22:36:10.905Z,6.17
2018-05-23T22:38:38.350Z,6.87
2018-05-23T22:41:04.307Z,6.90
2018-05-23T22:43:30.278Z,7.10
2018-05-23T22:45:56.248Z,6.37
2018-05-23T22:48:22.197Z,6.27
2018-05-23T22:50:48.163Z,6.00
2018-05-23T22:53:14.859Z,6.17
2018-05-23T22:55:40.808Z,6.03
2018-05-23T22:58:06.770Z,6.53
2018-05-23T23:00:32.701Z,6.33
2018-05-23T23:02:58.667Z,6.03
2018-05-23T23:05:25.366Z,6.07
2018-05-23T23:07:51.330Z,6.20
2018-05-23T23:10:17.284Z,6.10
2018-05-23T23:12:44.043Z,6.30
2018-05-23T23:15:10.730Z,6.90
2018-05-23T23:17:36.678Z,6.47
2018-05-23T23:20:02.625Z,5.90
2018-05-23T23:22:37.897Z,6.23
2018-05-23T23:25:03.854Z,5.67
2018-05-23T23:27:30.584Z,6.47
2018-05-23T23:29:56.554Z,5.40
2018-05-23T23:32:22.500Z,5.80
2018-05-23T23:34:48.446Z,6.20
2018-05-23T23:37:14.397Z,6.27
2018-05-23T23:39:40.351Z,5.73
2018-05-23T23:42:06.317Z,5.47
2018-05-23T23:44:32.356Z,5.60
2018-05-23T23:46:58.258Z,5.57
2018-05-23T23:49:24.230Z,5.40
2018-05-23T23:51:50.928Z,5.27
2018-05-23T23:54:16.882Z,6.10
2018-05-23T23:56:42.830Z,5.30
2018-05-23T23:59:09.536Z,5.63
